Kapolei, Hawaii
Current Conditions -  °F | °C
As of 9:53 PM on Friday 19 Dec 2014 (Local Time) from PHJR Reporting Station
Broken Clouds Broken Clouds  
Wind Chill: 71°   Ceiling: 4700
Heat Index: 71°   Visibility: 10mi
Dew Point: 65°   Wind: 0mph
Humidity: 81%   Direction: NA
Pressure: 30.06"   Gusts: NA
Location:  21.35°N, 158.01°W
Report Text: PHJR 200753Z 00000KT 10SM BKN047 22/18 A3006 RMK AO2 SLP186 T02170183
Loading
Personal Weather Stations






























Interactive Weather Map New forecast layout! Learn more

10-Day Weather Forecast

Advertisements
Track Severe Weather on mobile